sensor_id;sensor_type;location;lat;lon;timestamp;pressure;altitude;pressure_sealevel;temperature;humidity
33155;BME280;19511;42.682;23.332;2022-12-10T00:00:36;94534.41;;;8.37;100.00
33155;BME280;19511;42.682;23.332;2022-12-10T00:03:02;94534.03;;;8.35;100.00
33155;BME280;19511;42.682;23.332;2022-12-10T00:05:27;94506.16;;;8.29;100.00
33155;BME280;19511;42.682;23.332;2022-12-10T00:07:53;94539.94;;;8.33;100.00
33155;BME280;19511;42.682;23.332;2022-12-10T00:10:22;94545.34;;;8.06;100.00
33155;BME280;19511;42.682;23.332;2022-12-10T00:12:51;94531.50;;;8.13;100.00
33155;BME280;19511;42.682;23.332;2022-12-10T00:15:17;94504.16;;;7.95;100.00
33155;BME280;19511;42.682;23.332;2022-12-10T00:17:43;94471.97;;;7.89;100.00
33155;BME280;19511;42.682;23.332;2022-12-10T00:20:09;94445.47;;;7.64;100.00
33155;BME280;19511;42.682;23.332;2022-12-10T00:22:34;94512.28;;;8.06;100.00
33155;BME280;19511;42.682;23.332;2022-12-10T00:25:00;94502.38;;;8.12;100.00
33155;BME280;19511;42.682;23.332;2022-12-10T00:27:25;94517.13;;;8.33;100.00
33155;BME280;19511;42.682;23.332;2022-12-10T00:29:51;94528.44;;;8.46;100.00
33155;BME280;19511;42.682;23.332;2022-12-10T00:32:16;94518.69;;;8.34;100.00
33155;BME280;19511;42.682;23.332;2022-12-10T00:34:42;94540.50;;;8.56;100.00
33155;BME280;19511;42.682;23.332;2022-12-10T00:37:07;94467.25;;;7.85;100.00
33155;BME280;19511;42.682;23.332;2022-12-10T00:39:33;94529.47;;;8.56;100.00
33155;BME280;19511;42.682;23.332;2022-12-10T00:41:58;94426.38;;;7.84;100.00
33155;BME280;19511;42.682;23.332;2022-12-10T00:44:26;94518.56;;;8.45;100.00
33155;BME280;19511;42.682;23.332;2022-12-10T00:46:51;94540.47;;;8.59;100.00
33155;BME280;19511;42.682;23.332;2022-12-10T00:49:17;94451.19;;;8.15;100.00
33155;BME280;19511;42.682;23.332;2022-12-10T00:51:42;94456.47;;;8.02;100.00
33155;BME280;19511;42.682;23.332;2022-12-10T00:54:08;94515.34;;;8.54;100.00
33155;BME280;19511;42.682;23.332;2022-12-10T00:56:34;94535.63;;;8.67;100.00
33155;BME280;19511;42.682;23.332;2022-12-10T00:59:00;94546.47;;;8.50;100.00
33155;BME280;19511;42.682;23.332;2022-12-10T01:01:44;94530.19;;;8.63;100.00
33155;BME280;19511;42.682;23.332;2022-12-10T01:04:14;94524.38;;;8.54;100.00
33155;BME280;19511;42.682;23.332;2022-12-10T01:09:14;94513.78;;;8.53;100.00
33155;BME280;19511;42.682;23.332;2022-12-10T01:11:42;94431.03;;;7.91;100.00
33155;BME280;19511;42.682;23.332;2022-12-10T01:14:10;94534.50;;;8.64;100.00
33155;BME280;19511;42.682;23.332;2022-12-10T01:16:40;94525.91;;;8.59;100.00
33155;BME280;19511;42.682;23.332;2022-12-10T01:19:06;94518.75;;;8.65;100.00
33155;BME280;19511;42.682;23.332;2022-12-10T01:21:35;94506.38;;;8.42;100.00
33155;BME280;19511;42.682;23.332;2022-12-10T01:24:00;94519.28;;;8.53;100.00
33155;BME280;19511;42.682;23.332;2022-12-10T01:26:29;94507.34;;;8.63;100.00
33155;BME280;19511;42.682;23.332;2022-12-10T01:28:55;94457.06;;;8.21;100.00
33155;BME280;19511;42.682;23.332;2022-12-10T01:31:30;94430.50;;;8.03;100.00
33155;BME280;19511;42.682;23.332;2022-12-10T01:33:56;94481.94;;;8.48;100.00
33155;BME280;19511;42.682;23.332;2022-12-10T01:36:26;94490.00;;;8.66;100.00
33155;BME280;19511;42.682;23.332;2022-12-10T01:38:51;94481.44;;;8.57;100.00
33155;BME280;19511;42.682;23.332;2022-12-10T01:41:33;94442.44;;;8.24;100.00
33155;BME280;19511;42.682;23.332;2022-12-10T01:46:43;94469.28;;;8.50;100.00
33155;BME280;19511;42.682;23.332;2022-12-10T01:49:17;94527.56;;;8.83;100.00
33155;BME280;19511;42.682;23.332;2022-12-10T01:51:45;94512.94;;;8.87;100.00
33155;BME280;19511;42.682;23.332;2022-12-10T01:54:18;94356.31;;;7.89;100.00
33155;BME280;19511;42.682;23.332;2022-12-10T01:56:57;94517.16;;;8.95;100.00
33155;BME280;19511;42.682;23.332;2022-12-10T01:59:23;94522.53;;;9.06;100.00
33155;BME280;19511;42.682;23.332;2022-12-10T02:07:06;94493.25;;;9.15;100.00
33155;BME280;19511;42.682;23.332;2022-12-10T02:09:52;94496.19;;;9.01;100.00
33155;BME280;19511;42.682;23.332;2022-12-10T02:12:26;94514.78;;;8.97;100.00
33155;BME280;19511;42.682;23.332;2022-12-10T02:15:02;94506.09;;;8.98;100.00
33155;BME280;19511;42.682;23.332;2022-12-10T02:17:44;94536.72;;;9.08;100.00
33155;BME280;19511;42.682;23.332;2022-12-10T02:22:46;94512.44;;;8.95;100.00
33155;BME280;19511;42.682;23.332;2022-12-10T02:25:15;94487.72;;;9.15;100.00
33155;BME280;19511;42.682;23.332;2022-12-10T02:27:56;94490.72;;;9.25;100.00
33155;BME280;19511;42.682;23.332;2022-12-10T02:30:23;94416.56;;;8.76;100.00
33155;BME280;19511;42.682;23.332;2022-12-10T02:32:49;94475.31;;;9.00;100.00
33155;BME280;19511;42.682;23.332;2022-12-10T02:35:20;94405.00;;;8.61;100.00
33155;BME280;19511;42.682;23.332;2022-12-10T02:37:50;94485.44;;;9.10;100.00
33155;BME280;19511;42.682;23.332;2022-12-10T02:40:22;94484.59;;;9.13;100.00
33155;BME280;19511;42.682;23.332;2022-12-10T02:42:50;94402.06;;;8.72;100.00
33155;BME280;19511;42.682;23.332;2022-12-10T02:45:18;94467.13;;;8.96;100.00
33155;BME280;19511;42.682;23.332;2022-12-10T02:47:49;94393.34;;;8.49;100.00
33155;BME280;19511;42.682;23.332;2022-12-10T02:50:18;94388.50;;;8.57;100.00
33155;BME280;19511;42.682;23.332;2022-12-10T02:52:47;94389.66;;;8.60;100.00
33155;BME280;19511;42.682;23.332;2022-12-10T02:55:16;94461.94;;;8.98;100.00
33155;BME280;19511;42.682;23.332;2022-12-10T03:00:41;94459.41;;;8.84;100.00
33155;BME280;19511;42.682;23.332;2022-12-10T03:03:22;94479.19;;;9.06;100.00
33155;BME280;19511;42.682;23.332;2022-12-10T03:06:05;94416.53;;;8.79;100.00
33155;BME280;19511;42.682;23.332;2022-12-10T03:11:12;94492.19;;;9.06;100.00
33155;BME280;19511;42.682;23.332;2022-12-10T03:13:55;94484.00;;;8.98;100.00
33155;BME280;19511;42.682;23.332;2022-12-10T03:16:25;94478.72;;;8.84;100.00
33155;BME280;19511;42.682;23.332;2022-12-10T03:18:57;94438.81;;;8.65;100.00
33155;BME280;19511;42.682;23.332;2022-12-10T03:21:27;94467.25;;;8.86;100.00
33155;BME280;19511;42.682;23.332;2022-12-10T03:23:58;94452.75;;;8.81;100.00
33155;BME280;19511;42.682;23.332;2022-12-10T03:26:27;94405.81;;;8.58;100.00
33155;BME280;19511;42.682;23.332;2022-12-10T03:28:57;94481.78;;;9.17;100.00
33155;BME280;19511;42.682;23.332;2022-12-10T03:31:26;94421.69;;;8.77;100.00
33155;BME280;19511;42.682;23.332;2022-12-10T03:33:54;94459.38;;;9.11;100.00
33155;BME280;19511;42.682;23.332;2022-12-10T03:36:20;94458.34;;;9.29;100.00
33155;BME280;19511;42.682;23.332;2022-12-10T03:38:49;94463.97;;;9.22;100.00
33155;BME280;19511;42.682;23.332;2022-12-10T03:41:16;94459.91;;;9.30;100.00
33155;BME280;19511;42.682;23.332;2022-12-10T03:43:56;94460.13;;;9.39;100.00
33155;BME280;19511;42.682;23.332;2022-12-10T03:46:27;94461.22;;;9.45;100.00
33155;BME280;19511;42.682;23.332;2022-12-10T03:48:54;94363.06;;;8.73;100.00
33155;BME280;19511;42.682;23.332;2022-12-10T03:51:20;94463.31;;;9.38;100.00
33155;BME280;19511;42.682;23.332;2022-12-10T03:53:46;94458.22;;;9.36;100.00
33155;BME280;19511;42.682;23.332;2022-12-10T03:56:14;94410.28;;;9.26;100.00
33155;BME280;19511;42.682;23.332;2022-12-10T03:58:39;94414.72;;;9.20;100.00
33155;BME280;19511;42.682;23.332;2022-12-10T04:01:05;94428.94;;;9.42;100.00
33155;BME280;19511;42.682;23.332;2022-12-10T04:03:30;94426.00;;;9.29;100.00
33155;BME280;19511;42.682;23.332;2022-12-10T04:06:10;94358.09;;;8.88;100.00
33155;BME280;19511;42.682;23.332;2022-12-10T04:08:36;94450.25;;;9.42;100.00
33155;BME280;19511;42.682;23.332;2022-12-10T04:11:06;94362.31;;;8.96;100.00
33155;BME280;19511;42.682;23.332;2022-12-10T04:13:36;94448.13;;;9.50;100.00
33155;BME280;19511;42.682;23.332;2022-12-10T04:16:21;94343.88;;;8.90;100.00
33155;BME280;19511;42.682;23.332;2022-12-10T04:18:55;94452.94;;;9.45;100.00
33155;BME280;19511;42.682;23.332;2022-12-10T04:21:21;94455.59;;;9.53;100.00
33155;BME280;19511;42.682;23.332;2022-12-10T04:24:06;94444.59;;;9.49;100.00
33155;BME280;19511;42.682;23.332;2022-12-10T04:26:51;94360.22;;;9.04;100.00
33155;BME280;19511;42.682;23.332;2022-12-10T04:29:23;94449.00;;;9.46;100.00
33155;BME280;19511;42.682;23.332;2022-12-10T04:31:52;94469.97;;;9.40;100.00
33155;BME280;19511;42.682;23.332;2022-12-10T04:34:18;94398.38;;;8.82;100.00
33155;BME280;19511;42.682;23.332;2022-12-10T04:36:44;94453.28;;;9.24;100.00
33155;BME280;19511;42.682;23.332;2022-12-10T04:39:09;94446.53;;;9.28;100.00
33155;BME280;19511;42.682;23.332;2022-12-10T04:41:39;94470.28;;;9.22;100.00
33155;BME280;19511;42.682;23.332;2022-12-10T04:44:10;94450.34;;;9.11;100.00
33155;BME280;19511;42.682;23.332;2022-12-10T04:46:35;94375.75;;;8.67;100.00
33155;BME280;19511;42.682;23.332;2022-12-10T04:49:02;94372.06;;;8.50;100.00
33155;BME280;19511;42.682;23.332;2022-12-10T04:51:27;94450.81;;;9.06;100.00
33155;BME280;19511;42.682;23.332;2022-12-10T04:53:53;94471.41;;;9.25;100.00
33155;BME280;19511;42.682;23.332;2022-12-10T04:56:18;94389.38;;;8.50;100.00
33155;BME280;19511;42.682;23.332;2022-12-10T04:58:44;94450.75;;;8.82;100.00
33155;BME280;19511;42.682;23.332;2022-12-10T05:01:17;94470.56;;;9.04;100.00
33155;BME280;19511;42.682;23.332;2022-12-10T05:03:45;94480.88;;;9.24;100.00
33155;BME280;19511;42.682;23.332;2022-12-10T05:06:13;94404.25;;;8.84;100.00
33155;BME280;19511;42.682;23.332;2022-12-10T05:08:39;94466.19;;;9.07;100.00
33155;BME280;19511;42.682;23.332;2022-12-10T05:11:14;94381.25;;;8.67;100.00
33155;BME280;19511;42.682;23.332;2022-12-10T05:13:40;94456.91;;;9.21;100.00
33155;BME280;19511;42.682;23.332;2022-12-10T05:16:07;94458.88;;;9.20;100.00
33155;BME280;19511;42.682;23.332;2022-12-10T05:18:38;94462.53;;;9.13;100.00
33155;BME280;19511;42.682;23.332;2022-12-10T05:21:05;94461.00;;;9.09;100.00
33155;BME280;19511;42.682;23.332;2022-12-10T05:23:32;94448.44;;;9.08;100.00
33155;BME280;19511;42.682;23.332;2022-12-10T05:26:02;94442.03;;;9.14;100.00
33155;BME280;19511;42.682;23.332;2022-12-10T05:28:29;94321.50;;;8.33;100.00
33155;BME280;19511;42.682;23.332;2022-12-10T05:30:56;94447.00;;;9.23;100.00
33155;BME280;19511;42.682;23.332;2022-12-10T05:33:22;94456.00;;;9.27;100.00
33155;BME280;19511;42.682;23.332;2022-12-10T05:38:19;94405.31;;;8.94;100.00
33155;BME280;19511;42.682;23.332;2022-12-10T05:40:44;94447.34;;;9.25;100.00
33155;BME280;19511;42.682;23.332;2022-12-10T05:43:10;94478.22;;;9.17;100.00
33155;BME280;19511;42.682;23.332;2022-12-10T05:45:35;94468.28;;;9.23;100.00
33155;BME280;19511;42.682;23.332;2022-12-10T05:48:05;94467.19;;;9.17;100.00
33155;BME280;19511;42.682;23.332;2022-12-10T05:50:34;94473.13;;;9.42;100.00
33155;BME280;19511;42.682;23.332;2022-12-10T05:52:59;94450.09;;;9.25;100.00
33155;BME280;19511;42.682;23.332;2022-12-10T05:55:24;94484.97;;;9.39;100.00
33155;BME280;19511;42.682;23.332;2022-12-10T05:57:51;94411.75;;;8.83;100.00
33155;BME280;19511;42.682;23.332;2022-12-10T06:00:20;94483.41;;;9.38;100.00
33155;BME280;19511;42.682;23.332;2022-12-10T06:02:50;94477.19;;;9.34;100.00
33155;BME280;19511;42.682;23.332;2022-12-10T06:05:16;94454.41;;;9.03;100.00
33155;BME280;19511;42.682;23.332;2022-12-10T06:07:50;94480.63;;;9.14;100.00
33155;BME280;19511;42.682;23.332;2022-12-10T06:10:21;94503.47;;;9.15;100.00
33155;BME280;19511;42.682;23.332;2022-12-10T06:12:46;94408.47;;;8.65;100.00
33155;BME280;19511;42.682;23.332;2022-12-10T06:15:12;94476.50;;;9.26;100.00
33155;BME280;19511;42.682;23.332;2022-12-10T06:17:37;94482.22;;;9.39;100.00
33155;BME280;19511;42.682;23.332;2022-12-10T06:20:03;94490.25;;;9.30;100.00
33155;BME280;19511;42.682;23.332;2022-12-10T06:22:29;94417.19;;;8.87;100.00
33155;BME280;19511;42.682;23.332;2022-12-10T06:24:54;94459.47;;;9.31;100.00
33155;BME280;19511;42.682;23.332;2022-12-10T06:27:24;94484.09;;;9.46;100.00
33155;BME280;19511;42.682;23.332;2022-12-10T06:29:51;94463.13;;;9.25;100.00
33155;BME280;19511;42.682;23.332;2022-12-10T06:32:17;94466.03;;;9.41;100.00
33155;BME280;19511;42.682;23.332;2022-12-10T06:34:42;94442.88;;;9.35;100.00
33155;BME280;19511;42.682;23.332;2022-12-10T06:37:12;94456.06;;;9.47;100.00
33155;BME280;19511;42.682;23.332;2022-12-10T06:39:38;94441.41;;;9.51;100.00
33155;BME280;19511;42.682;23.332;2022-12-10T06:42:06;94448.13;;;9.50;100.00
33155;BME280;19511;42.682;23.332;2022-12-10T06:44:39;94456.06;;;9.47;100.00
33155;BME280;19511;42.682;23.332;2022-12-10T06:47:04;94425.75;;;9.20;100.00
33155;BME280;19511;42.682;23.332;2022-12-10T06:49:33;94467.47;;;9.50;100.00
33155;BME280;19511;42.682;23.332;2022-12-10T06:52:03;94474.69;;;9.43;100.00
33155;BME280;19511;42.682;23.332;2022-12-10T06:54:33;94485.59;;;9.51;100.00
33155;BME280;19511;42.682;23.332;2022-12-10T06:57:03;94494.47;;;9.62;100.00
33155;BME280;19511;42.682;23.332;2022-12-10T06:59:30;94496.16;;;9.56;100.00
33155;BME280;19511;42.682;23.332;2022-12-10T07:01:57;94502.00;;;9.61;100.00
33155;BME280;19511;42.682;23.332;2022-12-10T07:04:22;94477.63;;;9.56;100.00
33155;BME280;19511;42.682;23.332;2022-12-10T07:06:50;94495.56;;;9.92;100.00
33155;BME280;19511;42.682;23.332;2022-12-10T07:09:19;94482.78;;;9.78;100.00
33155;BME280;19511;42.682;23.332;2022-12-10T07:11:45;94489.97;;;9.72;100.00
33155;BME280;19511;42.682;23.332;2022-12-10T07:14:15;94500.00;;;9.86;100.00
33155;BME280;19511;42.682;23.332;2022-12-10T07:16:41;94457.44;;;9.59;100.00
33155;BME280;19511;42.682;23.332;2022-12-10T07:19:09;94483.06;;;9.84;100.00
33155;BME280;19511;42.682;23.332;2022-12-10T07:21:35;94472.38;;;9.86;100.00
33155;BME280;19511;42.682;23.332;2022-12-10T07:24:04;94470.63;;;9.95;100.00
33155;BME280;19511;42.682;23.332;2022-12-10T07:26:32;94435.28;;;9.63;100.00
33155;BME280;19511;42.682;23.332;2022-12-10T07:28:59;94442.31;;;9.68;100.00
33155;BME280;19511;42.682;23.332;2022-12-10T07:31:25;94349.19;;;9.04;100.00
33155;BME280;19511;42.682;23.332;2022-12-10T07:33:52;94455.06;;;9.61;100.00
33155;BME280;19511;42.682;23.332;2022-12-10T07:36:19;94448.34;;;9.83;100.00
33155;BME280;19511;42.682;23.332;2022-12-10T07:38:46;94462.03;;;9.90;100.00
33155;BME280;19511;42.682;23.332;2022-12-10T07:41:12;94458.28;;;10.00;100.00
33155;BME280;19511;42.682;23.332;2022-12-10T07:43:42;94443.91;;;9.89;100.00
33155;BME280;19511;42.682;23.332;2022-12-10T07:46:14;94442.34;;;9.88;100.00
33155;BME280;19511;42.682;23.332;2022-12-10T07:48:41;94471.88;;;9.91;100.00
33155;BME280;19511;42.682;23.332;2022-12-10T07:51:10;94452.41;;;9.78;100.00
33155;BME280;19511;42.682;23.332;2022-12-10T07:53:36;94474.66;;;9.91;100.00
33155;BME280;19511;42.682;23.332;2022-12-10T07:56:02;94385.63;;;9.39;100.00
33155;BME280;19511;42.682;23.332;2022-12-10T07:58:28;94452.69;;;10.04;100.00
33155;BME280;19511;42.682;23.332;2022-12-10T08:00:53;94457.41;;;10.07;100.00
33155;BME280;19511;42.682;23.332;2022-12-10T08:03:19;94420.19;;;10.11;100.00
33155;BME280;19511;42.682;23.332;2022-12-10T08:05:47;94388.38;;;10.03;100.00
33155;BME280;19511;42.682;23.332;2022-12-10T08:08:12;94406.94;;;10.23;100.00
33155;BME280;19511;42.682;23.332;2022-12-10T08:10:38;94379.59;;;9.88;100.00
33155;BME280;19511;42.682;23.332;2022-12-10T08:13:08;94417.91;;;10.26;100.00
33155;BME280;19511;42.682;23.332;2022-12-10T08:15:36;94413.81;;;10.15;100.00
33155;BME280;19511;42.682;23.332;2022-12-10T08:18:02;94426.47;;;10.32;100.00
33155;BME280;19511;42.682;23.332;2022-12-10T08:20:27;94427.94;;;10.40;100.00
33155;BME280;19511;42.682;23.332;2022-12-10T08:22:53;94394.69;;;10.24;100.00
33155;BME280;19511;42.682;23.332;2022-12-10T08:25:18;94424.16;;;10.51;100.00
33155;BME280;19511;42.682;23.332;2022-12-10T08:27:44;94428.50;;;10.52;100.00
33155;BME280;19511;42.682;23.332;2022-12-10T08:30:14;94361.53;;;10.04;100.00
33155;BME280;19511;42.682;23.332;2022-12-10T08:32:40;94359.97;;;10.03;100.00
33155;BME280;19511;42.682;23.332;2022-12-10T08:35:05;94411.34;;;10.40;100.00
33155;BME280;19511;42.682;23.332;2022-12-10T08:37:31;94404.13;;;10.47;100.00
33155;BME280;19511;42.682;23.332;2022-12-10T08:39:56;94368.78;;;10.34;100.00
33155;BME280;19511;42.682;23.332;2022-12-10T08:42:22;94280.25;;;9.64;100.00
33155;BME280;19511;42.682;23.332;2022-12-10T08:44:47;94414.59;;;10.55;100.00
33155;BME280;19511;42.682;23.332;2022-12-10T08:47:13;94413.53;;;10.49;100.00
33155;BME280;19511;42.682;23.332;2022-12-10T08:49:38;94387.66;;;10.39;100.00
33155;BME280;19511;42.682;23.332;2022-12-10T08:52:03;94384.94;;;10.56;100.00
33155;BME280;19511;42.682;23.332;2022-12-10T08:54:29;94387.03;;;10.68;100.00
33155;BME280;19511;42.682;23.332;2022-12-10T08:56:54;94401.13;;;10.74;100.00
33155;BME280;19511;42.682;23.332;2022-12-10T08:59:20;94304.53;;;10.30;100.00
33155;BME280;19511;42.682;23.332;2022-12-10T09:01:45;94287.06;;;10.33;100.00
33155;BME280;19511;42.682;23.332;2022-12-10T09:04:11;94367.09;;;10.77;100.00
33155;BME280;19511;42.682;23.332;2022-12-10T09:06:38;94379.28;;;10.96;100.00
33155;BME280;19511;42.682;23.332;2022-12-10T09:09:03;94366.16;;;11.00;100.00
33155;BME280;19511;42.682;23.332;2022-12-10T09:11:32;94387.53;;;11.16;100.00
33155;BME280;19511;42.682;23.332;2022-12-10T09:13:58;94381.19;;;10.99;100.00
33155;BME280;19511;42.682;23.332;2022-12-10T09:16:35;94376.44;;;11.16;100.00
33155;BME280;19511;42.682;23.332;2022-12-10T09:19:01;94224.91;;;10.25;100.00
33155;BME280;19511;42.682;23.332;2022-12-10T09:21:27;94242.69;;;10.24;100.00
33155;BME280;19511;42.682;23.332;2022-12-10T09:23:53;94374.44;;;11.17;100.00
33155;BME280;19511;42.682;23.332;2022-12-10T09:26:21;94362.84;;;11.05;100.00
33155;BME280;19511;42.682;23.332;2022-12-10T09:28:48;94376.44;;;11.33;100.00
33155;BME280;19511;42.682;23.332;2022-12-10T09:31:15;94350.72;;;11.32;100.00
33155;BME280;19511;42.682;23.332;2022-12-10T09:33:41;94356.94;;;11.36;100.00
33155;BME280;19511;42.682;23.332;2022-12-10T09:36:08;94291.22;;;10.78;100.00
33155;BME280;19511;42.682;23.332;2022-12-10T09:38:36;94346.41;;;11.31;100.00
33155;BME280;19511;42.682;23.332;2022-12-10T09:47:06;94326.00;;;11.71;100.00
33155;BME280;19511;42.682;23.332;2022-12-10T09:52:27;94331.66;;;12.09;100.00
33155;BME280;19511;42.682;23.332;2022-12-10T09:54:57;94322.59;;;12.22;100.00
33155;BME280;19511;42.682;23.332;2022-12-10T09:59:56;94299.88;;;12.53;100.00
33155;BME280;19511;42.682;23.332;2022-12-10T10:02:26;94237.88;;;12.21;100.00
33155;BME280;19511;42.682;23.332;2022-12-10T10:05:03;94320.03;;;12.92;100.00
33155;BME280;19511;42.682;23.332;2022-12-10T10:07:34;94288.59;;;13.08;100.00
33155;BME280;19511;42.682;23.332;2022-12-10T10:10:23;94227.72;;;12.79;100.00
33155;BME280;19511;42.682;23.332;2022-12-10T10:12:52;94294.53;;;13.32;100.00
33155;BME280;19511;42.682;23.332;2022-12-10T10:15:24;94285.56;;;13.28;100.00
33155;BME280;19511;42.682;23.332;2022-12-10T10:17:52;94297.69;;;13.57;100.00
33155;BME280;19511;42.682;23.332;2022-12-10T10:20:19;94299.13;;;13.61;100.00
33155;BME280;19511;42.682;23.332;2022-12-10T10:22:45;94292.59;;;13.55;100.00
33155;BME280;19511;42.682;23.332;2022-12-10T10:25:26;94267.59;;;13.55;100.00
33155;BME280;19511;42.682;23.332;2022-12-10T10:27:53;94266.63;;;13.49;100.00
33155;BME280;19511;42.682;23.332;2022-12-10T10:30:20;94258.97;;;13.62;100.00
33155;BME280;19511;42.682;23.332;2022-12-10T10:32:53;94253.03;;;13.51;100.00
33155;BME280;19511;42.682;23.332;2022-12-10T10:35:27;94175.16;;;12.97;100.00
33155;BME280;19511;42.682;23.332;2022-12-10T10:38:05;94243.75;;;13.45;100.00
33155;BME280;19511;42.682;23.332;2022-12-10T10:40:42;94247.47;;;13.51;100.00
33155;BME280;19511;42.682;23.332;2022-12-10T10:43:19;94236.84;;;13.71;100.00
33155;BME280;19511;42.682;23.332;2022-12-10T10:46:00;94171.41;;;13.35;100.00
33155;BME280;19511;42.682;23.332;2022-12-10T10:48:27;94250.31;;;13.82;100.00
33155;BME280;19511;42.682;23.332;2022-12-10T10:51:07;94257.84;;;13.73;100.00
33155;BME280;19511;42.682;23.332;2022-12-10T10:56:14;94228.16;;;13.92;100.00
33155;BME280;19511;42.682;23.332;2022-12-10T11:01:45;94234.38;;;14.05;100.00
33155;BME280;19511;42.682;23.332;2022-12-10T11:04:14;94225.22;;;13.95;100.00
33155;BME280;19511;42.682;23.332;2022-12-10T11:06:41;94215.53;;;14.00;100.00
33155;BME280;19511;42.682;23.332;2022-12-10T11:09:07;94171.53;;;13.76;100.00
33155;BME280;19511;42.682;23.332;2022-12-10T11:11:41;94202.47;;;13.87;100.00
33155;BME280;19511;42.682;23.332;2022-12-10T11:20:20;94181.53;;;13.96;100.00
33155;BME280;19511;42.682;23.332;2022-12-10T11:23:01;94152.91;;;13.86;100.00
33155;BME280;19511;42.682;23.332;2022-12-10T11:29:02;94166.19;;;13.82;100.00
33155;BME280;19511;42.682;23.332;2022-12-10T11:33:48;94117.56;;;13.55;100.00
33155;BME280;19511;42.682;23.332;2022-12-10T11:44:31;94172.81;;;14.16;100.00
33155;BME280;19511;42.682;23.332;2022-12-10T11:49:46;94162.06;;;14.46;100.00
33155;BME280;19511;42.682;23.332;2022-12-10T11:55:33;94142.25;;;14.25;100.00
33155;BME280;19511;42.682;23.332;2022-12-10T12:01:06;94152.63;;;14.34;100.00
33155;BME280;19511;42.682;23.332;2022-12-10T12:06:21;94141.91;;;14.23;100.00
33155;BME280;19511;42.682;23.332;2022-12-10T12:15:03;94139.78;;;14.27;100.00
33155;BME280;19511;42.682;23.332;2022-12-10T12:17:37;94079.75;;;13.98;100.00
33155;BME280;19511;42.682;23.332;2022-12-10T12:22:47;94013.72;;;13.62;100.00
33155;BME280;19511;42.682;23.332;2022-12-10T12:25:42;94117.97;;;14.16;100.00
33155;BME280;19511;42.682;23.332;2022-12-10T12:28:24;94115.38;;;14.22;100.00
33155;BME280;19511;42.682;23.332;2022-12-10T12:31:01;94119.06;;;14.28;100.00
33155;BME280;19511;42.682;23.332;2022-12-10T12:36:14;94094.41;;;14.49;100.00
33155;BME280;19511;42.682;23.332;2022-12-10T12:38:46;94077.38;;;14.56;100.00
33155;BME280;19511;42.682;23.332;2022-12-10T12:43:55;94061.00;;;14.58;100.00
33155;BME280;19511;42.682;23.332;2022-12-10T12:46:35;94044.63;;;14.32;100.00
33155;BME280;19511;42.682;23.332;2022-12-10T12:49:22;94060.41;;;14.54;100.00
33155;BME280;19511;42.682;23.332;2022-12-10T12:52:03;94061.59;;;14.34;100.00
33155;BME280;19511;42.682;23.332;2022-12-10T12:54:32;94063.63;;;14.43;100.00
33155;BME280;19511;42.682;23.332;2022-12-10T12:57:07;94056.38;;;14.55;100.00
33155;BME280;19511;42.682;23.332;2022-12-10T13:05:32;94055.16;;;14.75;100.00
33155;BME280;19511;42.682;23.332;2022-12-10T13:08:23;94021.13;;;14.52;100.00
33155;BME280;19511;42.682;23.332;2022-12-10T13:13:35;94031.34;;;14.55;100.00
33155;BME280;19511;42.682;23.332;2022-12-10T13:16:35;94045.69;;;14.53;100.00
33155;BME280;19511;42.682;23.332;2022-12-10T13:27:28;94036.09;;;14.17;100.00
33155;BME280;19511;42.682;23.332;2022-12-10T13:43:38;93986.34;;;14.29;100.00
33155;BME280;19511;42.682;23.332;2022-12-10T13:48:57;93990.94;;;13.85;100.00
33155;BME280;19511;42.682;23.332;2022-12-10T13:57:04;93996.38;;;13.98;100.00
33155;BME280;19511;42.682;23.332;2022-12-10T14:07:19;93899.34;;;13.63;100.00
33155;BME280;19511;42.682;23.332;2022-12-10T14:09:57;93966.06;;;14.00;100.00
33155;BME280;19511;42.682;23.332;2022-12-10T14:12:33;93983.72;;;14.16;100.00
33155;BME280;19511;42.682;23.332;2022-12-10T14:15:04;93981.09;;;14.21;100.00
33155;BME280;19511;42.682;23.332;2022-12-10T14:17:43;93987.44;;;14.22;100.00
33155;BME280;19511;42.682;23.332;2022-12-10T14:20:22;93986.78;;;14.18;100.00
33155;BME280;19511;42.682;23.332;2022-12-10T14:22:50;93978.59;;;14.14;100.00
33155;BME280;19511;42.682;23.332;2022-12-10T14:25:20;93959.63;;;14.03;100.00
33155;BME280;19511;42.682;23.332;2022-12-10T14:28:15;93966.09;;;14.19;100.00
33155;BME280;19511;42.682;23.332;2022-12-10T14:30:46;93879.13;;;13.53;100.00
33155;BME280;19511;42.682;23.332;2022-12-10T14:33:15;93949.25;;;14.04;100.00
33155;BME280;19511;42.682;23.332;2022-12-10T14:35:41;93957.16;;;14.15;100.00
33155;BME280;19511;42.682;23.332;2022-12-10T14:38:17;93946.00;;;13.96;100.00
33155;BME280;19511;42.682;23.332;2022-12-10T14:40:44;93946.19;;;14.02;100.00
33155;BME280;19511;42.682;23.332;2022-12-10T14:43:22;93942.75;;;13.98;100.00
33155;BME280;19511;42.682;23.332;2022-12-10T14:45:52;93905.38;;;13.71;100.00
33155;BME280;19511;42.682;23.332;2022-12-10T14:48:21;93856.06;;;13.34;100.00
33155;BME280;19511;42.682;23.332;2022-12-10T14:50:48;93927.00;;;13.76;100.00
33155;BME280;19511;42.682;23.332;2022-12-10T14:53:23;93953.25;;;13.75;100.00
33155;BME280;19511;42.682;23.332;2022-12-10T14:55:56;93926.78;;;13.52;100.00
33155;BME280;19511;42.682;23.332;2022-12-10T14:58:31;93935.44;;;13.54;100.00
33155;BME280;19511;42.682;23.332;2022-12-10T15:00:58;93945.34;;;13.64;100.00
33155;BME280;19511;42.682;23.332;2022-12-10T15:03:30;93942.97;;;13.44;100.00
33155;BME280;19511;42.682;23.332;2022-12-10T15:05:58;93950.56;;;13.44;100.00
33155;BME280;19511;42.682;23.332;2022-12-10T15:08:26;93946.69;;;13.41;100.00